createdAt,value
2023-07-22T00:01:45.987Z,1.10
2023-07-22T00:04:13.052Z,1.60
2023-07-22T00:06:39.489Z,1.60
2023-07-22T00:09:06.409Z,1.00
2023-07-22T00:11:33.443Z,1.47
2023-07-22T00:14:00.124Z,1.10
2023-07-22T00:16:26.791Z,1.20
2023-07-22T00:18:54.696Z,1.10
2023-07-22T00:21:21.118Z,0.90
2023-07-22T00:23:47.648Z,1.03
2023-07-22T00:26:14.214Z,1.23
2023-07-22T00:28:40.664Z,0.90
2023-07-22T00:31:07.511Z,1.20
2023-07-22T00:33:34.004Z,1.33
2023-07-22T00:36:00.560Z,1.27
2023-07-22T00:38:28.146Z,1.17
2023-07-22T00:40:54.797Z,1.33
2023-07-22T00:43:21.289Z,0.90
2023-07-22T00:45:47.818Z,0.97
2023-07-22T00:48:15.942Z,1.00
2023-07-22T00:50:42.509Z,1.10
2023-07-22T00:53:09.127Z,1.10
2023-07-22T00:55:36.672Z,1.00
2023-07-22T00:58:03.161Z,0.70
2023-07-22T01:00:29.642Z,0.80
2023-07-22T01:02:56.253Z,1.30
2023-07-22T01:05:22.837Z,1.10
2023-07-22T01:07:49.348Z,1.00
2023-07-22T01:10:16.046Z,0.90
2023-07-22T01:12:44.735Z,0.80
2023-07-22T01:15:11.621Z,1.30
2023-07-22T01:17:38.800Z,0.90
2023-07-22T01:20:07.145Z,1.07
2023-07-22T01:22:34.718Z,0.93
2023-07-22T01:25:02.150Z,1.13
2023-07-22T01:27:28.753Z,1.10
2023-07-22T01:29:55.316Z,0.83
2023-07-22T01:32:21.826Z,1.00
2023-07-22T01:34:48.345Z,1.07
2023-07-22T01:37:14.878Z,1.27
2023-07-22T01:39:41.293Z,1.00
2023-07-22T01:42:07.747Z,1.10
2023-07-22T01:44:34.186Z,1.23
2023-07-22T01:47:03.997Z,1.07
2023-07-22T01:49:30.548Z,1.23
2023-07-22T01:51:57.217Z,0.90
2023-07-22T01:54:23.677Z,0.87
2023-07-22T01:56:50.184Z,1.13
2023-07-22T01:59:16.645Z,1.00
2023-07-22T02:01:43.192Z,0.70
2023-07-22T02:04:09.904Z,1.00
2023-07-22T02:06:36.463Z,0.93
2023-07-22T02:09:09.300Z,1.27
2023-07-22T02:11:36.815Z,1.00
2023-07-22T02:14:04.720Z,1.17
2023-07-22T02:16:31.156Z,0.80
2023-07-22T02:18:58.102Z,1.13
2023-07-22T02:21:24.531Z,1.00
2023-07-22T02:23:51.050Z,0.93
2023-07-22T02:26:17.506Z,0.73
2023-07-22T02:28:44.083Z,0.80
2023-07-22T02:31:11.857Z,0.87
2023-07-22T02:33:39.122Z,0.90
2023-07-22T02:36:05.740Z,0.80
2023-07-22T02:38:32.224Z,0.80
2023-07-22T02:41:08.617Z,1.37
2023-07-22T02:43:36.180Z,1.20
2023-07-22T02:46:08.943Z,0.90
2023-07-22T02:48:35.605Z,1.00
2023-07-22T02:51:08.129Z,1.10
2023-07-22T02:53:37.555Z,1.00
2023-07-22T02:56:05.196Z,0.70
2023-07-22T02:58:31.614Z,0.63
2023-07-22T03:01:00.776Z,1.20
2023-07-22T03:03:27.783Z,1.10
2023-07-22T03:05:54.460Z,1.03
2023-07-22T03:08:20.869Z,0.73
2023-07-22T03:10:49.594Z,1.03
2023-07-22T03:13:16.686Z,0.80
2023-07-22T03:15:43.766Z,0.77
2023-07-22T03:18:11.117Z,0.80
2023-07-22T03:20:38.663Z,0.93
2023-07-22T03:23:06.173Z,0.80
2023-07-22T03:25:33.994Z,0.57
2023-07-22T03:28:05.530Z,0.80
2023-07-22T03:30:32.360Z,0.93
2023-07-22T03:32:58.891Z,1.07
2023-07-22T03:35:25.609Z,1.00
2023-07-22T03:37:52.007Z,0.70
2023-07-22T03:40:21.572Z,1.17
2023-07-22T03:42:52.527Z,0.70
2023-07-22T03:45:20.127Z,0.70
2023-07-22T03:47:48.247Z,1.07
2023-07-22T03:50:14.802Z,0.70
2023-07-22T03:52:41.276Z,1.00
2023-07-22T03:55:08.285Z,0.87
2023-07-22T03:57:36.660Z,0.70
2023-07-22T04:00:05.064Z,0.80
2023-07-22T04:02:31.618Z,0.47
2023-07-22T04:04:58.250Z,0.70
2023-07-22T04:07:25.136Z,0.70
2023-07-22T04:09:51.656Z,0.97
2023-07-22T04:12:18.341Z,1.20
2023-07-22T04:14:44.971Z,1.23
2023-07-22T04:17:11.590Z,1.03
2023-07-22T04:19:38.103Z,1.33
2023-07-22T04:22:05.804Z,0.80
2023-07-22T04:24:32.840Z,0.97
2023-07-22T04:26:59.850Z,1.00
2023-07-22T04:29:26.303Z,0.70
2023-07-22T04:31:52.799Z,1.00
2023-07-22T04:34:19.297Z,1.30
2023-07-22T04:36:45.741Z,1.00
2023-07-22T04:39:12.168Z,1.23
2023-07-22T04:41:38.717Z,1.07
2023-07-22T04:44:05.390Z,1.00
2023-07-22T04:46:31.885Z,0.87
2023-07-22T04:48:59.251Z,0.87
2023-07-22T04:51:25.784Z,1.10
2023-07-22T04:53:52.250Z,1.37
2023-07-22T04:56:18.743Z,1.27
2023-07-22T04:58:45.167Z,0.83
2023-07-22T05:01:11.826Z,1.10
2023-07-22T05:03:38.325Z,0.80
2023-07-22T05:06:04.858Z,0.90
2023-07-22T05:08:31.432Z,0.93
2023-07-22T05:10:57.962Z,0.70
2023-07-22T05:13:24.486Z,1.07
2023-07-22T05:15:50.954Z,1.23
2023-07-22T05:18:17.811Z,0.87
2023-07-22T05:20:44.398Z,1.00
2023-07-22T05:23:12.825Z,0.80
2023-07-22T05:25:39.237Z,0.70
2023-07-22T05:28:05.681Z,1.07
2023-07-22T05:30:35.610Z,1.20
2023-07-22T05:33:03.196Z,1.20
2023-07-22T05:35:29.888Z,0.77
2023-07-22T05:37:56.410Z,1.03
2023-07-22T05:40:22.946Z,0.97
2023-07-22T05:42:49.430Z,1.00
2023-07-22T05:45:17.371Z,0.90
2023-07-22T05:47:44.086Z,0.93
2023-07-22T05:50:10.695Z,1.03
2023-07-22T05:52:37.723Z,0.87
2023-07-22T05:55:04.443Z,0.90
2023-07-22T05:57:31.803Z,1.20
2023-07-22T06:00:07.425Z,1.13
2023-07-22T06:02:35.315Z,1.50
2023-07-22T06:05:02.584Z,1.27
2023-07-22T06:07:29.056Z,1.50
2023-07-22T06:09:55.496Z,0.90
2023-07-22T06:12:22.080Z,0.77
2023-07-22T06:14:48.608Z,0.90
2023-07-22T06:17:15.030Z,1.10
2023-07-22T06:19:41.453Z,1.10
2023-07-22T06:22:07.924Z,0.83
2023-07-22T06:24:34.556Z,0.83
2023-07-22T06:27:01.136Z,0.77
2023-07-22T06:29:27.772Z,0.77
2023-07-22T06:31:54.348Z,1.20
2023-07-22T06:34:20.926Z,1.13
2023-07-22T06:36:48.413Z,1.30
2023-07-22T06:39:14.858Z,1.23
2023-07-22T06:41:41.265Z,1.23
2023-07-22T06:44:07.848Z,1.43
2023-07-22T06:46:34.326Z,0.90
2023-07-22T06:49:00.784Z,1.10
2023-07-22T06:51:27.232Z,0.90
2023-07-22T06:53:53.698Z,1.00
2023-07-22T06:56:20.164Z,0.93
2023-07-22T06:58:46.633Z,0.70
2023-07-22T07:01:13.102Z,0.60
2023-07-22T07:03:39.547Z,1.23
2023-07-22T07:06:06.048Z,1.03
2023-07-22T07:08:32.516Z,0.67
2023-07-22T07:11:02.249Z,0.90
2023-07-22T07:13:28.825Z,0.90
2023-07-22T07:15:55.547Z,1.50
2023-07-22T07:18:22.010Z,0.77
2023-07-22T07:20:48.553Z,1.10
2023-07-22T07:23:17.418Z,0.90
2023-07-22T07:25:44.166Z,0.80
2023-07-22T07:28:10.752Z,0.70
2023-07-22T07:30:37.222Z,0.60
2023-07-22T07:33:04.940Z,0.97
2023-07-22T07:35:31.457Z,0.83
2023-07-22T07:37:57.907Z,0.93
2023-07-22T07:40:24.351Z,0.90
2023-07-22T07:42:50.893Z,1.07
2023-07-22T07:45:17.590Z,0.90
2023-07-22T07:47:44.128Z,0.97
2023-07-22T07:50:10.954Z,0.70
2023-07-22T07:52:39.689Z,0.60
2023-07-22T07:55:06.803Z,1.20
2023-07-22T07:57:33.289Z,1.00
2023-07-22T07:59:59.820Z,0.80
2023-07-22T08:02:26.243Z,0.80
2023-07-22T08:04:52.678Z,0.70
2023-07-22T08:07:19.265Z,1.10
2023-07-22T08:09:49.988Z,0.90
2023-07-22T08:12:16.984Z,0.83
2023-07-22T08:14:43.425Z,1.10
2023-07-22T08:17:09.924Z,0.90
2023-07-22T08:19:36.476Z,0.60
2023-07-22T08:22:03.052Z,0.73
2023-07-22T08:24:29.510Z,0.97
2023-07-22T08:26:55.975Z,0.73
2023-07-22T08:29:22.463Z,0.97
2023-07-22T08:31:49.060Z,0.50
2023-07-22T08:34:15.639Z,0.73
2023-07-22T08:36:42.583Z,0.67
2023-07-22T08:39:09.097Z,0.80
2023-07-22T08:41:36.396Z,1.10
2023-07-22T08:44:05.351Z,0.70
2023-07-22T08:46:34.677Z,0.77
2023-07-22T08:49:01.899Z,0.87
2023-07-22T08:51:29.607Z,0.80
2023-07-22T08:54:11.095Z,1.10
2023-07-22T08:56:40.582Z,0.80
2023-07-22T08:59:09.658Z,0.60
2023-07-22T09:01:37.332Z,0.67
2023-07-22T09:04:04.535Z,0.90
2023-07-22T09:06:31.298Z,0.87
2023-07-22T09:08:59.235Z,0.70
2023-07-22T09:11:26.849Z,1.00
2023-07-22T09:13:55.111Z,0.63
2023-07-22T09:16:22.878Z,1.13
2023-07-22T09:18:49.390Z,1.07
2023-07-22T09:21:15.906Z,0.90
2023-07-22T09:23:42.319Z,0.90
2023-07-22T09:26:19.182Z,0.73
2023-07-22T09:28:57.156Z,0.60
2023-07-22T09:31:26.506Z,0.80
2023-07-22T09:33:56.650Z,0.85
2023-07-22T09:36:23.295Z,1.30
2023-07-22T09:39:04.193Z,0.90
2023-07-22T09:41:31.932Z,0.90
2023-07-22T09:44:02.371Z,1.57
2023-07-22T09:46:35.053Z,1.00
2023-07-22T09:49:09.149Z,0.83
2023-07-22T09:51:45.650Z,1.10
2023-07-22T09:54:20.465Z,1.00
2023-07-22T09:56:49.999Z,0.80
2023-07-22T09:59:19.200Z,0.80
2023-07-22T10:01:48.279Z,1.27
2023-07-22T10:04:17.674Z,1.33
2023-07-22T10:06:44.689Z,1.10
2023-07-22T10:09:13.456Z,0.77
2023-07-22T10:11:40.731Z,1.73
2023-07-22T10:14:07.923Z,1.53
2023-07-22T10:16:35.475Z,0.90
2023-07-22T10:19:03.029Z,0.77
2023-07-22T10:21:31.534Z,0.90
2023-07-22T10:23:59.545Z,0.90
2023-07-22T10:26:40.454Z,0.83
2023-07-22T10:29:11.801Z,0.90
2023-07-22T10:31:39.674Z,0.83
2023-07-22T10:34:06.384Z,0.70
2023-07-22T10:36:32.961Z,0.80
2023-07-22T10:39:03.909Z,0.53
2023-07-22T10:41:31.160Z,0.83
2023-07-22T10:44:00.195Z,0.73
2023-07-22T10:46:40.993Z,0.67
2023-07-22T10:49:16.898Z,0.80
2023-07-22T10:51:53.128Z,0.83
2023-07-22T10:54:37.647Z,0.57
2023-07-22T10:57:23.136Z,0.60
2023-07-22T10:59:53.633Z,0.77
2023-07-22T11:02:28.386Z,0.70
2023-07-22T11:04:59.592Z,0.87
2023-07-22T11:08:11.165Z,0.70
2023-07-22T11:10:39.223Z,0.80
2023-07-22T11:13:06.323Z,0.80
2023-07-22T11:15:32.809Z,0.57
2023-07-22T11:17:59.330Z,0.70
2023-07-22T11:20:25.857Z,0.60
2023-07-22T11:22:52.490Z,0.60
2023-07-22T11:25:19.858Z,0.80
2023-07-22T11:27:46.625Z,0.83
2023-07-22T11:30:13.363Z,0.50
2023-07-22T11:32:43.726Z,0.60
2023-07-22T11:35:10.186Z,1.30
2023-07-22T11:37:36.594Z,0.70
2023-07-22T11:40:03.140Z,0.77
2023-07-22T11:42:30.681Z,0.60
2023-07-22T11:44:57.385Z,0.60
2023-07-22T11:47:30.251Z,0.60
2023-07-22T11:49:56.787Z,0.50
2023-07-22T11:52:23.345Z,0.60
2023-07-22T11:54:49.831Z,0.50
2023-07-22T11:57:21.284Z,0.60
2023-07-22T11:59:56.678Z,0.60
2023-07-22T12:02:30.102Z,0.77
2023-07-22T12:05:03.676Z,0.93
2023-07-22T12:07:37.625Z,0.90
2023-07-22T12:10:06.998Z,0.70
2023-07-22T12:12:50.029Z,0.60
2023-07-22T12:15:19.196Z,0.60
2023-07-22T12:17:54.845Z,1.00
2023-07-22T12:20:26.788Z,0.60
2023-07-22T12:22:54.004Z,0.80
2023-07-22T12:25:20.510Z,0.73
2023-07-22T12:27:47.052Z,0.73
2023-07-22T12:30:13.641Z,1.00
2023-07-22T12:32:40.291Z,1.13
2023-07-22T12:35:07.540Z,1.00
2023-07-22T12:37:35.153Z,0.60
2023-07-22T12:40:01.734Z,0.80
2023-07-22T12:42:28.187Z,0.73
2023-07-22T12:44:54.577Z,0.63
2023-07-22T12:47:21.148Z,0.57
2023-07-22T12:49:47.672Z,0.40
2023-07-22T12:52:14.507Z,0.80
2023-07-22T12:54:42.395Z,0.60
2023-07-22T12:57:09.053Z,0.67
2023-07-22T12:59:35.490Z,0.73
2023-07-22T13:02:02.002Z,0.60
2023-07-22T13:04:28.414Z,0.50
2023-07-22T13:06:54.938Z,0.80
2023-07-22T13:09:21.505Z,0.67
2023-07-22T13:11:48.025Z,0.80
2023-07-22T13:14:15.298Z,0.80
2023-07-22T13:16:41.960Z,0.50
2023-07-22T13:19:08.422Z,0.60
2023-07-22T13:21:34.905Z,0.77
2023-07-22T13:24:01.416Z,0.73
2023-07-22T13:26:27.894Z,0.60
2023-07-22T13:28:54.377Z,0.60
2023-07-22T13:31:21.276Z,0.97
2023-07-22T13:33:48.043Z,0.50
2023-07-22T13:36:14.592Z,0.70
2023-07-22T13:38:41.110Z,1.07
2023-07-22T13:41:07.508Z,0.70
2023-07-22T13:43:33.978Z,0.97
2023-07-22T13:46:00.557Z,0.70
2023-07-22T13:48:26.975Z,0.77
2023-07-22T13:50:53.494Z,1.20
2023-07-22T13:53:19.963Z,0.77
2023-07-22T13:55:50.290Z,1.10
2023-07-22T13:58:18.491Z,0.90
2023-07-22T14:00:45.099Z,0.77
2023-07-22T14:03:11.596Z,1.07
2023-07-22T14:05:38.077Z,1.03
2023-07-22T14:08:04.794Z,0.57
2023-07-22T14:10:31.340Z,0.83
2023-07-22T14:12:57.784Z,0.70
2023-07-22T14:15:24.326Z,0.83
2023-07-22T14:17:50.748Z,0.60
2023-07-22T14:20:17.320Z,1.00
2023-07-22T14:22:43.889Z,0.90
2023-07-22T14:25:10.524Z,1.03
2023-07-22T14:27:39.626Z,0.93
2023-07-22T14:30:07.137Z,1.10
2023-07-22T14:32:33.873Z,0.90
2023-07-22T14:35:00.570Z,0.80
2023-07-22T14:37:27.076Z,0.90
2023-07-22T14:39:53.714Z,0.90
2023-07-22T14:42:20.175Z,0.73
2023-07-22T14:44:46.612Z,0.77
2023-07-22T14:47:13.107Z,1.00
2023-07-22T14:49:39.656Z,0.80
2023-07-22T14:52:06.597Z,0.80
2023-07-22T14:54:34.552Z,0.90
2023-07-22T14:57:01.115Z,1.23
2023-07-22T14:59:27.606Z,0.97
2023-07-22T15:01:54.100Z,0.70
2023-07-22T15:04:20.532Z,0.90
2023-07-22T15:06:46.984Z,0.80
2023-07-22T15:09:13.574Z,1.00
2023-07-22T15:11:40.530Z,0.90
2023-07-22T15:14:07.177Z,1.30
2023-07-22T15:16:34.651Z,0.93
2023-07-22T15:19:01.658Z,1.02
2023-07-22T15:21:28.665Z,1.07
2023-07-22T15:23:55.796Z,1.00
2023-07-22T15:26:22.452Z,1.20
2023-07-22T15:28:49.481Z,1.20
2023-07-22T15:31:20.205Z,1.10
2023-07-22T15:33:46.885Z,1.37
2023-07-22T15:36:13.423Z,1.60
2023-07-22T15:38:39.891Z,1.00
2023-07-22T15:41:06.446Z,1.38
2023-07-22T15:43:33.058Z,1.30
2023-07-22T15:46:00.127Z,1.00
2023-07-22T15:48:26.796Z,1.00
2023-07-22T15:50:53.553Z,1.13
2023-07-22T15:53:20.456Z,1.00
2023-07-22T15:55:47.212Z,1.07
2023-07-22T15:58:13.739Z,0.90
2023-07-22T16:00:40.532Z,1.00
2023-07-22T16:03:07.838Z,1.30
2023-07-22T16:05:34.344Z,1.07
2023-07-22T16:08:01.489Z,1.30
2023-07-22T16:10:28.234Z,1.13
2023-07-22T16:12:54.781Z,1.10
2023-07-22T16:15:21.441Z,1.00
2023-07-22T16:17:48.070Z,1.20
2023-07-22T16:20:14.905Z,1.20
2023-07-22T16:22:41.507Z,0.97
2023-07-22T16:25:10.357Z,0.93
2023-07-22T16:27:36.859Z,0.90
2023-07-22T16:30:04.178Z,0.87
2023-07-22T16:32:30.725Z,1.03
2023-07-22T16:34:57.235Z,1.00
2023-07-22T16:37:23.757Z,1.00
2023-07-22T16:39:50.322Z,0.83
2023-07-22T16:42:16.808Z,6.40
2023-07-22T16:44:43.221Z,2.60
2023-07-22T16:47:09.621Z,3.10
2023-07-22T16:49:36.139Z,2.20
2023-07-22T16:52:02.623Z,1.30
2023-07-22T16:54:29.158Z,0.90
2023-07-22T16:56:55.557Z,0.60
2023-07-22T16:59:22.088Z,1.10
2023-07-22T17:01:48.616Z,0.90
2023-07-22T17:04:15.109Z,1.10
2023-07-22T17:06:41.560Z,1.10
2023-07-22T17:09:08.015Z,0.80
2023-07-22T17:11:34.551Z,1.00
2023-07-22T17:14:01.070Z,0.90
2023-07-22T17:16:27.750Z,0.93
2023-07-22T17:18:54.212Z,0.83
2023-07-22T17:21:20.668Z,1.17
2023-07-22T17:23:47.130Z,1.30
2023-07-22T17:26:13.634Z,0.77
2023-07-22T17:28:40.118Z,1.47
2023-07-22T17:31:06.680Z,1.20
2023-07-22T17:33:33.205Z,1.00
2023-07-22T17:35:59.817Z,1.00
2023-07-22T17:38:26.358Z,0.93
2023-07-22T17:40:53.092Z,1.03
2023-07-22T17:43:19.700Z,0.90
2023-07-22T17:45:46.410Z,1.00
2023-07-22T17:48:13.152Z,1.00
2023-07-22T17:50:39.634Z,1.27
2023-07-22T17:53:06.073Z,0.87
2023-07-22T17:55:32.563Z,0.90
2023-07-22T17:57:59.009Z,1.43
2023-07-22T18:00:25.521Z,1.40
2023-07-22T18:02:52.131Z,1.00
2023-07-22T18:05:18.720Z,1.17
2023-07-22T18:07:45.148Z,1.10
2023-07-22T18:10:11.598Z,0.80
2023-07-22T18:12:38.113Z,0.93
2023-07-22T18:15:04.911Z,0.97
2023-07-22T18:17:31.531Z,1.10
2023-07-22T18:19:58.027Z,1.13
2023-07-22T18:22:24.534Z,0.90
2023-07-22T18:24:51.054Z,1.20
2023-07-22T18:27:17.596Z,1.33
2023-07-22T18:29:44.060Z,0.90
2023-07-22T18:32:10.724Z,1.20
2023-07-22T18:34:37.263Z,1.60
2023-07-22T18:37:03.828Z,1.93
2023-07-22T18:39:30.370Z,1.20
2023-07-22T18:41:56.926Z,1.03
2023-07-22T18:44:23.427Z,1.00
2023-07-22T18:46:49.996Z,1.17
2023-07-22T18:49:16.518Z,1.10
2023-07-22T18:51:43.024Z,1.60
2023-07-22T18:54:09.681Z,1.33
2023-07-22T18:56:36.144Z,1.43
2023-07-22T18:59:02.707Z,1.20
2023-07-22T19:01:29.567Z,1.73
2023-07-22T19:03:56.340Z,1.27
2023-07-22T19:06:22.774Z,1.47
2023-07-22T19:08:49.265Z,1.53
2023-07-22T19:11:15.699Z,1.03
2023-07-22T19:13:42.242Z,1.47
2023-07-22T19:16:08.772Z,1.77
2023-07-22T19:18:35.285Z,1.30
2023-07-22T19:21:03.151Z,1.40
2023-07-22T19:23:30.249Z,1.30
2023-07-22T19:25:57.984Z,1.07
2023-07-22T19:28:24.607Z,1.37
2023-07-22T19:30:56.742Z,1.80
2023-07-22T19:33:24.569Z,1.50
2023-07-22T19:36:09.690Z,1.60
2023-07-22T19:38:37.105Z,1.60
2023-07-22T19:41:08.263Z,1.77
2023-07-22T19:43:36.401Z,2.03
2023-07-22T19:46:08.460Z,2.20
2023-07-22T19:48:35.971Z,1.93
2023-07-22T19:51:04.518Z,2.20
2023-07-22T19:53:31.374Z,2.20
2023-07-22T19:55:59.421Z,2.37
2023-07-22T19:58:26.007Z,2.03
2023-07-22T20:00:53.918Z,2.63
2023-07-22T20:03:21.465Z,2.93
2023-07-22T20:05:48.458Z,2.20
2023-07-22T20:08:15.196Z,1.57
2023-07-22T20:10:41.684Z,1.97
2023-07-22T20:13:08.214Z,1.43
2023-07-22T20:15:36.016Z,2.50
2023-07-22T20:18:03.677Z,1.83
2023-07-22T20:20:30.714Z,2.30
2023-07-22T20:22:57.248Z,2.13
2023-07-22T20:25:25.100Z,1.77
2023-07-22T20:27:56.482Z,1.90
2023-07-22T20:30:25.317Z,1.57
2023-07-22T20:32:51.784Z,2.13
2023-07-22T20:35:18.617Z,2.47
2023-07-22T20:37:45.492Z,2.20
2023-07-22T20:40:14.423Z,2.33
2023-07-22T20:42:42.633Z,2.50
2023-07-22T20:45:09.615Z,2.23
2023-07-22T20:47:36.370Z,2.57
2023-07-22T20:50:03.343Z,2.33
2023-07-22T20:52:30.082Z,2.60
2023-07-22T20:54:56.692Z,2.23
2023-07-22T20:57:23.161Z,2.00
2023-07-22T20:59:51.897Z,1.70
2023-07-22T21:02:18.377Z,2.20
2023-07-22T21:04:44.982Z,2.33
2023-07-22T21:07:11.683Z,2.07
2023-07-22T21:09:38.376Z,2.10
2023-07-22T21:12:05.187Z,2.30
2023-07-22T21:14:31.670Z,1.53
2023-07-22T21:16:58.115Z,2.03
2023-07-22T21:19:24.627Z,1.90
2023-07-22T21:21:51.152Z,1.83
2023-07-22T21:24:17.768Z,1.67
2023-07-22T21:26:44.274Z,1.97
2023-07-22T21:29:10.792Z,1.87
2023-07-22T21:31:37.254Z,2.00
2023-07-22T21:34:13.977Z,1.77
2023-07-22T21:36:41.648Z,1.60
2023-07-22T21:39:08.115Z,2.53
2023-07-22T21:41:34.557Z,1.63
2023-07-22T21:44:01.013Z,1.80
2023-07-22T21:46:27.522Z,1.70
2023-07-22T21:48:54.038Z,1.93
2023-07-22T21:51:20.453Z,1.80
2023-07-22T21:53:46.926Z,2.40
2023-07-22T21:56:13.398Z,1.93
2023-07-22T21:58:39.822Z,2.20
2023-07-22T22:01:06.311Z,2.27
2023-07-22T22:03:32.809Z,1.73
2023-07-22T22:05:59.957Z,1.80
2023-07-22T22:08:26.720Z,1.70
2023-07-22T22:10:53.304Z,1.60
2023-07-22T22:13:19.828Z,1.47
2023-07-22T22:15:46.408Z,1.60
2023-07-22T22:18:13.571Z,1.30
2023-07-22T22:20:40.113Z,2.17
2023-07-22T22:23:06.743Z,1.27
2023-07-22T22:25:33.298Z,1.50
2023-07-22T22:27:59.807Z,1.40
2023-07-22T22:30:26.351Z,1.70
2023-07-22T22:32:52.993Z,1.40
2023-07-22T22:35:19.530Z,1.60
2023-07-22T22:37:46.059Z,1.30
2023-07-22T22:40:12.631Z,1.30
2023-07-22T22:42:39.117Z,1.67
2023-07-22T22:45:06.162Z,1.93
2023-07-22T22:47:32.725Z,1.30
2023-07-22T22:49:59.358Z,1.60
2023-07-22T22:52:25.818Z,1.30
2023-07-22T22:54:52.471Z,1.50
2023-07-22T22:57:18.974Z,1.63
2023-07-22T22:59:45.488Z,1.63
2023-07-22T23:02:11.949Z,1.20
2023-07-22T23:04:38.380Z,1.47
2023-07-22T23:07:05.216Z,1.40
2023-07-22T23:09:31.701Z,1.20
2023-07-22T23:11:59.077Z,1.40
2023-07-22T23:14:25.788Z,1.50
2023-07-22T23:16:52.268Z,1.27
2023-07-22T23:19:19.448Z,1.67
2023-07-22T23:21:46.042Z,1.30
2023-07-22T23:24:12.536Z,1.50
2023-07-22T23:26:39.025Z,1.57
2023-07-22T23:29:05.551Z,1.20
2023-07-22T23:31:32.488Z,1.30
2023-07-22T23:33:58.979Z,1.30
2023-07-22T23:36:25.662Z,1.33
2023-07-22T23:38:52.221Z,1.57
2023-07-22T23:41:18.727Z,1.10
2023-07-22T23:43:45.167Z,1.30
2023-07-22T23:46:11.637Z,1.40
2023-07-22T23:48:38.103Z,1.83
2023-07-22T23:51:04.593Z,1.57
2023-07-22T23:53:31.095Z,1.10
2023-07-22T23:55:57.699Z,0.97
2023-07-22T23:58:24.127Z,1.03
